createdAt,value
2019-01-24T00:00:41.954Z,47.75
2019-01-24T00:03:10.951Z,48.73
2019-01-24T00:05:39.937Z,41.95
2019-01-24T00:08:08.931Z,44.20
2019-01-24T00:10:37.955Z,44.27
2019-01-24T00:13:06.915Z,53.23
2019-01-24T00:15:35.832Z,42.67
2019-01-24T00:18:04.924Z,43.75
2019-01-24T00:20:33.961Z,45.45
2019-01-24T00:23:02.783Z,47.95
2019-01-24T00:25:31.685Z,50.12
2019-01-24T00:28:00.642Z,49.45
2019-01-24T00:30:29.680Z,39.85
2019-01-24T00:32:58.651Z,41.55
2019-01-24T00:35:27.486Z,44.13
2019-01-24T00:37:56.395Z,44.88
2019-01-24T00:40:25.259Z,39.08
2019-01-24T00:42:54.135Z,44.88
2019-01-24T00:45:23.145Z,43.50
2019-01-24T00:47:52.163Z,45.52
2019-01-24T00:50:21.164Z,40.55
2019-01-24T00:52:50.086Z,44.23
2019-01-24T00:55:18.999Z,46.02
2019-01-24T00:57:47.987Z,47.85
2019-01-24T01:00:19.237Z,44.88
2019-01-24T01:02:48.317Z,46.40
2019-01-24T01:05:17.446Z,46.83
2019-01-24T01:07:46.499Z,43.28
2019-01-24T01:10:15.948Z,45.43
2019-01-24T01:12:44.998Z,43.15
2019-01-24T01:15:15.894Z,45.98
2019-01-24T01:17:45.091Z,49.98
2019-01-24T01:20:16.804Z,41.15
2019-01-24T01:22:45.748Z,42.38
2019-01-24T01:25:14.840Z,40.43
2019-01-24T01:27:44.424Z,45.00
2019-01-24T01:30:16.256Z,46.45
2019-01-24T01:32:45.189Z,41.85
2019-01-24T01:35:14.305Z,46.80
2019-01-24T01:37:43.167Z,47.23
2019-01-24T01:40:12.736Z,42.83
2019-01-24T01:42:41.662Z,44.35
2019-01-24T01:45:13.432Z,47.60
2019-01-24T01:47:42.341Z,40.48
2019-01-24T01:50:13.892Z,44.88
2019-01-24T01:52:42.809Z,42.00
2019-01-24T01:55:11.904Z,42.13
2019-01-24T01:57:40.990Z,45.60
2019-01-24T02:00:13.102Z,42.53
2019-01-24T02:02:41.934Z,41.88
2019-01-24T02:05:11.167Z,37.13
2019-01-24T02:07:40.124Z,45.83
2019-01-24T02:10:11.184Z,45.28
2019-01-24T02:12:40.107Z,45.17
2019-01-24T02:15:09.774Z,45.83
2019-01-24T02:17:38.769Z,44.13
2019-01-24T02:20:10.467Z,44.20
2019-01-24T02:22:39.428Z,48.20
2019-01-24T02:25:09.474Z,41.63
2019-01-24T02:27:38.570Z,43.38
2019-01-24T02:30:09.729Z,42.15
2019-01-24T02:32:38.673Z,44.38
2019-01-24T02:35:08.584Z,44.85
2019-01-24T02:37:37.610Z,43.05
2019-01-24T02:40:06.845Z,41.98
2019-01-24T02:42:35.762Z,43.10
2019-01-24T02:45:06.382Z,44.20
2019-01-24T02:47:35.202Z,44.60
2019-01-24T02:50:05.682Z,38.83
2019-01-24T02:52:34.681Z,45.67
2019-01-24T02:55:04.047Z,40.05
2019-01-24T02:57:32.841Z,43.65
2019-01-24T03:00:01.703Z,42.25
2019-01-24T03:02:30.606Z,43.38
2019-01-24T03:04:59.538Z,46.00
2019-01-24T03:07:28.450Z,39.67
2019-01-24T03:09:57.342Z,46.40
2019-01-24T03:12:26.192Z,42.60
2019-01-24T03:14:55.078Z,45.52
2019-01-24T03:17:23.929Z,41.60
2019-01-24T03:19:52.764Z,43.10
2019-01-24T03:22:21.961Z,45.00
2019-01-24T03:24:50.785Z,45.83
2019-01-24T03:27:19.716Z,46.48
2019-01-24T03:29:48.596Z,46.45
2019-01-24T03:32:17.522Z,44.50
2019-01-24T03:34:47.000Z,44.88
2019-01-24T03:37:15.824Z,41.40
2019-01-24T03:39:44.762Z,41.48
2019-01-24T03:42:13.631Z,41.48
2019-01-24T03:44:42.567Z,40.80
2019-01-24T03:47:11.560Z,42.45
2019-01-24T03:49:40.522Z,43.95
2019-01-24T03:52:09.440Z,41.08
2019-01-24T03:54:38.309Z,45.50
2019-01-24T03:57:07.197Z,40.25
2019-01-24T03:59:36.155Z,43.35
2019-01-24T04:02:05.184Z,43.78
2019-01-24T04:04:34.116Z,41.77
2019-01-24T04:07:02.946Z,41.80
2019-01-24T04:09:31.968Z,42.38
2019-01-24T04:12:00.962Z,45.05
2019-01-24T04:14:29.972Z,44.60
2019-01-24T04:16:58.879Z,45.65
2019-01-24T04:19:27.829Z,43.90
2019-01-24T04:21:56.682Z,43.65
2019-01-24T04:24:25.514Z,48.83
2019-01-24T04:26:54.433Z,42.98
2019-01-24T04:29:23.288Z,42.25
2019-01-24T04:31:52.214Z,42.80
2019-01-24T04:34:21.287Z,46.40
2019-01-24T04:36:50.303Z,45.38
2019-01-24T04:39:19.151Z,46.70
2019-01-24T04:41:48.031Z,50.67
2019-01-24T04:44:16.976Z,49.18
2019-01-24T04:46:45.843Z,47.33
2019-01-24T04:49:14.743Z,50.43
2019-01-24T04:51:43.674Z,51.95
2019-01-24T04:54:12.647Z,47.60
2019-01-24T04:56:41.705Z,47.03
2019-01-24T04:59:10.618Z,50.50
2019-01-24T05:01:39.564Z,49.48
2019-01-24T05:04:08.516Z,45.83
2019-01-24T05:06:37.478Z,44.25
2019-01-24T05:09:07.835Z,47.58
2019-01-24T05:11:36.616Z,50.43
2019-01-24T05:32:19.715Z,46.13
2019-01-24T05:34:50.454Z,43.30
2019-01-24T06:02:34.999Z,49.93
2019-01-24T06:05:04.801Z,46.63
2019-01-24T06:07:34.182Z,48.08
2019-01-24T06:10:03.378Z,45.00
2019-01-24T06:12:35.615Z,44.55
2019-01-24T06:15:06.839Z,50.65
2019-01-24T06:17:36.419Z,47.03
2019-01-24T06:20:06.270Z,44.00
2019-01-24T06:22:35.208Z,44.90
2019-01-24T06:25:04.774Z,45.28
2019-01-24T06:27:33.821Z,44.18
2019-01-24T06:30:02.928Z,40.85
2019-01-24T06:32:32.280Z,42.08
2019-01-24T06:35:01.259Z,46.08
2019-01-24T06:37:30.330Z,47.40
2019-01-24T06:39:59.288Z,50.12
2019-01-24T06:42:28.267Z,51.13
2019-01-24T06:44:57.222Z,43.55
2019-01-24T06:47:26.215Z,41.10
2019-01-24T06:49:55.228Z,43.05
2019-01-24T06:52:24.246Z,46.53
2019-01-24T06:54:53.226Z,43.10
2019-01-24T06:57:22.363Z,36.38
2019-01-24T06:59:51.230Z,42.80
2019-01-24T07:02:20.086Z,43.00
2019-01-24T07:04:50.039Z,41.00
2019-01-24T07:07:20.644Z,45.00
2019-01-24T07:09:49.452Z,50.55
2019-01-24T07:12:18.488Z,45.23
2019-01-24T07:14:47.418Z,40.60
2019-01-24T07:17:16.334Z,40.98
2019-01-24T07:19:45.347Z,41.30
2019-01-24T07:22:14.213Z,49.33
2019-01-24T07:24:43.158Z,38.60
2019-01-24T07:27:12.099Z,37.70
2019-01-24T07:29:41.916Z,35.85
2019-01-24T07:32:10.810Z,34.92
2019-01-24T07:34:39.780Z,39.00
2019-01-24T07:37:08.852Z,41.00
2019-01-24T07:39:37.774Z,36.68
2019-01-24T07:42:06.868Z,33.08
2019-01-24T07:44:36.198Z,40.38
2019-01-24T07:47:05.174Z,31.37
2019-01-24T07:49:34.197Z,37.17
2019-01-24T07:52:04.354Z,34.40
2019-01-24T07:54:33.406Z,38.45
2019-01-24T07:57:02.354Z,35.50
2019-01-24T07:59:31.564Z,40.43
2019-01-24T08:02:00.552Z,31.40
2019-01-24T08:04:29.442Z,32.75
2019-01-24T08:06:58.850Z,35.03
2019-01-24T08:09:27.789Z,31.00
2019-01-24T08:11:56.750Z,31.57
2019-01-24T08:14:25.669Z,32.95
2019-01-24T08:16:54.619Z,34.43
2019-01-24T08:19:23.676Z,33.28
2019-01-24T08:21:52.701Z,39.10
2019-01-24T08:24:21.763Z,39.00
2019-01-24T08:26:50.838Z,33.08
2019-01-24T08:30:13.121Z,34.90
2019-01-24T08:33:03.541Z,40.85
2019-01-24T08:35:33.227Z,31.55
2019-01-24T08:38:02.315Z,33.55
2019-01-24T08:40:32.333Z,35.63
2019-01-24T08:43:01.341Z,36.10
2019-01-24T08:45:35.764Z,29.75
2019-01-24T08:48:04.899Z,29.82
2019-01-24T08:50:33.746Z,35.30
2019-01-24T08:53:02.777Z,36.45
2019-01-24T08:55:34.173Z,34.03
2019-01-24T08:58:03.391Z,33.15
2019-01-24T09:00:32.313Z,29.98
2019-01-24T09:03:01.423Z,36.58
2019-01-24T09:05:32.647Z,28.35
2019-01-24T09:08:53.717Z,34.78
2019-01-24T09:11:22.753Z,31.62
2019-01-24T09:13:51.626Z,36.17
2019-01-24T09:16:20.595Z,32.10
2019-01-24T09:18:49.617Z,30.48
2019-01-24T09:21:18.483Z,26.75
2019-01-24T09:23:47.505Z,33.13
2019-01-24T09:26:16.711Z,32.33
2019-01-24T09:28:45.725Z,32.03
2019-01-24T09:31:14.629Z,26.02
2019-01-24T09:33:43.561Z,31.12
2019-01-24T09:36:44.069Z,31.23
2019-01-24T09:39:13.179Z,32.23
2019-01-24T09:41:42.144Z,33.23
2019-01-24T09:44:11.081Z,32.13
2019-01-24T09:47:50.921Z,35.28
2019-01-24T09:50:42.763Z,31.33
2019-01-24T09:56:54.426Z,28.73
2019-01-24T09:59:26.799Z,27.30
2019-01-24T10:01:55.888Z,32.20
2019-01-24T10:04:24.904Z,29.37
2019-01-24T10:06:54.093Z,32.70
2019-01-24T10:09:23.243Z,28.17
2019-01-24T10:11:52.148Z,31.87
2019-01-24T10:14:21.067Z,27.32
2019-01-24T10:16:50.400Z,28.77
2019-01-24T10:22:48.421Z,28.02
2019-01-24T10:25:25.392Z,30.90
2019-01-24T10:27:54.558Z,29.07
2019-01-24T10:30:23.649Z,29.72
2019-01-24T10:32:52.796Z,32.55
2019-01-24T10:35:25.934Z,32.90
2019-01-24T10:37:55.473Z,33.20
2019-01-24T10:40:27.293Z,29.90
2019-01-24T10:42:56.531Z,32.00
2019-01-24T10:45:26.173Z,36.33
2019-01-24T10:47:55.409Z,39.98
2019-01-24T10:50:25.024Z,39.85
2019-01-24T10:52:54.161Z,36.10
2019-01-24T10:55:25.032Z,33.83
2019-01-24T10:57:55.044Z,35.55
2019-01-24T11:00:26.663Z,37.00
2019-01-24T11:02:55.648Z,34.70
2019-01-24T11:05:24.683Z,32.58
2019-01-24T11:07:53.726Z,29.87
2019-01-24T11:10:22.853Z,30.37
2019-01-24T11:12:52.038Z,23.77
2019-01-24T11:15:22.138Z,32.40
2019-01-24T11:17:50.942Z,29.50
2019-01-24T11:20:20.066Z,29.00
2019-01-24T11:22:49.421Z,28.17
2019-01-24T11:25:20.018Z,33.42
2019-01-24T11:27:49.339Z,34.15
2019-01-24T11:30:21.684Z,32.90
2019-01-24T11:32:50.699Z,33.23
2019-01-24T11:35:20.360Z,41.02
2019-01-24T11:37:49.398Z,38.83
2019-01-24T11:40:18.789Z,37.60
2019-01-24T11:42:48.020Z,38.53
2019-01-24T11:45:17.874Z,39.35
2019-01-24T11:47:46.732Z,39.35
2019-01-24T11:50:17.358Z,40.28
2019-01-24T11:52:46.238Z,42.65
2019-01-24T11:55:16.491Z,44.03
2019-01-24T11:57:45.684Z,40.10
2019-01-24T12:00:17.648Z,39.38
2019-01-24T12:02:47.620Z,45.60
2019-01-24T12:05:16.616Z,38.88
2019-01-24T12:07:45.574Z,36.05
2019-01-24T12:10:16.926Z,44.05
2019-01-24T12:12:45.930Z,46.35
2019-01-24T12:15:16.706Z,50.10
2019-01-24T12:17:45.640Z,53.68
2019-01-24T12:20:19.628Z,48.75
2019-01-24T12:22:48.497Z,48.17
2019-01-24T12:25:17.574Z,43.78
2019-01-24T12:27:46.639Z,46.80
2019-01-24T12:30:18.735Z,50.78
2019-01-24T12:32:47.701Z,57.17
2019-01-24T12:35:17.154Z,61.88
2019-01-24T12:37:46.176Z,51.50
2019-01-24T12:40:15.681Z,60.67
2019-01-24T12:42:44.571Z,54.45
2019-01-24T12:45:18.903Z,53.52
2019-01-24T12:47:47.974Z,56.18
2019-01-24T12:50:17.409Z,57.53
2019-01-24T12:52:46.449Z,56.10
2019-01-24T12:55:15.672Z,58.10
2019-01-24T12:57:44.801Z,53.28
2019-01-24T13:00:19.119Z,53.78
2019-01-24T13:02:48.141Z,72.67
2019-01-24T13:05:17.466Z,54.45
2019-01-24T13:07:46.535Z,55.08
2019-01-24T13:10:17.369Z,57.05
2019-01-24T13:12:46.439Z,62.23
2019-01-24T13:15:15.993Z,57.23
2019-01-24T13:17:45.085Z,54.13
2019-01-24T13:20:15.679Z,57.90
2019-01-24T13:22:45.034Z,56.10
2019-01-24T13:25:16.493Z,56.83
2019-01-24T13:27:45.587Z,55.48
2019-01-24T13:30:17.241Z,52.80
2019-01-24T13:32:46.129Z,50.08
2019-01-24T13:35:15.261Z,57.65
2019-01-24T13:37:44.173Z,51.30
2019-01-24T13:40:15.839Z,46.70
2019-01-24T13:42:45.049Z,51.73
2019-01-24T13:45:16.323Z,54.03
2019-01-24T13:47:45.335Z,50.23
2019-01-24T13:50:15.285Z,45.30
2019-01-24T13:52:44.223Z,56.45
2019-01-24T13:55:13.574Z,46.02
2019-01-24T13:57:42.563Z,46.60
2019-01-24T14:00:31.784Z,51.68
2019-01-24T14:03:04.085Z,49.10
2019-01-24T14:05:33.004Z,43.05
2019-01-24T14:08:01.935Z,50.12
2019-01-24T14:10:30.817Z,51.33
2019-01-24T14:12:59.839Z,46.37
2019-01-24T14:15:28.734Z,53.98
2019-01-24T14:17:57.703Z,44.23
2019-01-24T14:20:26.625Z,41.85
2019-01-24T14:22:55.638Z,49.53
2019-01-24T14:25:24.625Z,51.63
2019-01-24T14:27:53.539Z,47.75
2019-01-24T14:30:23.896Z,45.67
2019-01-24T14:32:52.878Z,45.52
2019-01-24T14:35:21.940Z,50.52
2019-01-24T14:37:51.111Z,50.55
2019-01-24T14:40:20.111Z,50.50
2019-01-24T14:42:49.070Z,45.55
2019-01-24T14:45:20.279Z,47.43
2019-01-24T14:47:49.215Z,49.30
2019-01-24T14:50:20.295Z,50.17
2019-01-24T14:52:49.298Z,46.28
2019-01-24T14:55:18.197Z,47.50
2019-01-24T14:57:47.115Z,53.00
2019-01-24T15:00:37.297Z,46.80
2019-01-24T15:03:06.906Z,48.42
2019-01-24T15:05:35.929Z,49.05
2019-01-24T15:08:05.415Z,45.70
2019-01-24T15:10:34.424Z,58.55
2019-01-24T15:13:03.516Z,49.88
2019-01-24T15:15:32.611Z,51.80
2019-01-24T15:18:01.505Z,59.30
2019-01-24T15:20:30.587Z,47.83
2019-01-24T15:22:59.639Z,48.05
2019-01-24T15:25:28.548Z,51.63
2019-01-24T15:27:57.557Z,44.23
2019-01-24T15:30:26.646Z,52.67
2019-01-24T15:32:55.704Z,48.50
2019-01-24T15:35:24.776Z,54.80
2019-01-24T15:37:54.572Z,49.67
2019-01-24T15:40:26.514Z,51.95
2019-01-24T15:42:55.467Z,53.60
2019-01-24T15:45:24.402Z,52.03
2019-01-24T15:47:53.566Z,52.93
2019-01-24T15:50:22.798Z,51.00
2019-01-24T15:52:52.100Z,55.55
2019-01-24T15:55:21.032Z,56.70
2019-01-24T15:57:50.017Z,54.45
2019-01-24T16:00:21.078Z,53.13
2019-01-24T16:02:50.116Z,57.05
2019-01-24T16:05:19.073Z,56.75
2019-01-24T16:07:47.974Z,53.87
2019-01-24T16:10:17.860Z,51.70
2019-01-24T16:12:46.986Z,59.77
2019-01-24T16:15:35.545Z,51.60
2019-01-24T16:18:07.558Z,46.20
2019-01-24T16:20:36.681Z,51.75
2019-01-24T16:23:06.200Z,52.85
2019-01-24T16:25:35.510Z,55.85
2019-01-24T16:28:04.806Z,54.65
2019-01-24T16:30:34.388Z,42.60
2019-01-24T16:33:05.531Z,45.95
2019-01-24T16:35:34.669Z,57.30
2019-01-24T16:38:09.251Z,50.05
2019-01-24T16:40:34.482Z,49.85
2019-01-24T16:43:03.468Z,43.68
2019-01-24T16:45:32.476Z,43.02
2019-01-24T16:48:02.004Z,44.67
2019-01-24T16:50:31.013Z,47.53
2019-01-24T16:53:00.003Z,43.50
2019-01-24T16:55:28.944Z,49.05
2019-01-24T16:57:57.876Z,50.75
2019-01-24T17:00:38.664Z,51.35
2019-01-24T17:03:07.587Z,48.15
2019-01-24T17:05:36.604Z,51.40
2019-01-24T17:08:06.420Z,49.38
2019-01-24T17:10:35.374Z,54.60
2019-01-24T17:13:05.115Z,50.30
2019-01-24T17:15:34.321Z,51.50
2019-01-24T17:18:03.259Z,57.62
2019-01-24T17:20:32.233Z,70.20
2019-01-24T17:23:01.187Z,52.23
2019-01-24T17:25:30.295Z,59.83
2019-01-24T17:27:59.258Z,55.12
2019-01-24T17:30:28.958Z,52.13
2019-01-24T17:32:58.227Z,49.77
2019-01-24T17:35:27.294Z,51.60
2019-01-24T17:37:56.374Z,50.70
2019-01-24T17:40:27.095Z,52.35
2019-01-24T17:42:56.223Z,57.73
2019-01-24T17:45:25.230Z,57.13
2019-01-24T17:47:54.265Z,53.78
2019-01-24T17:50:23.173Z,58.20
2019-01-24T17:52:52.197Z,56.13
2019-01-24T17:55:29.612Z,56.42
2019-01-24T17:57:58.507Z,67.78
2019-01-24T18:00:31.093Z,57.98
2019-01-24T18:03:00.014Z,55.90
2019-01-24T18:05:28.893Z,63.23
2019-01-24T18:07:57.855Z,60.98
2019-01-24T18:10:26.895Z,55.58
2019-01-24T18:12:55.887Z,54.48
2019-01-24T18:15:29.405Z,63.60
2019-01-24T18:17:58.438Z,59.42
2019-01-24T18:20:29.742Z,64.05
2019-01-24T18:22:58.893Z,60.05
2019-01-24T18:25:27.943Z,49.73
2019-01-24T18:27:56.847Z,56.15
2019-01-24T18:30:27.174Z,53.65
2019-01-24T18:32:56.337Z,56.33
2019-01-24T18:35:25.526Z,58.42
2019-01-24T18:37:54.626Z,80.67
2019-01-24T18:40:25.010Z,58.52
2019-01-24T18:42:54.025Z,65.00
2019-01-24T18:45:29.203Z,59.70
2019-01-24T18:47:58.240Z,54.18
2019-01-24T18:50:27.397Z,53.13
2019-01-24T18:52:56.308Z,47.40
2019-01-24T18:55:25.118Z,51.30
2019-01-24T18:57:54.185Z,46.92
2019-01-24T19:00:30.328Z,50.33
2019-01-24T19:02:59.322Z,41.63
2019-01-24T19:05:28.326Z,52.43
2019-01-24T19:07:57.278Z,53.33
2019-01-24T19:10:26.204Z,44.93
2019-01-24T19:12:55.209Z,48.87
2019-01-24T19:15:24.318Z,52.43
2019-01-24T19:17:53.485Z,55.80
2019-01-24T19:20:22.408Z,52.67
2019-01-24T19:22:51.430Z,48.85
2019-01-24T19:25:21.237Z,49.95
2019-01-24T19:27:50.308Z,54.40
2019-01-24T19:30:24.910Z,50.23
2019-01-24T19:32:54.158Z,44.85
2019-01-24T19:35:23.096Z,51.58
2019-01-24T19:37:52.091Z,57.50
2019-01-24T19:40:21.768Z,49.45
2019-01-24T19:42:50.761Z,50.20
2019-01-24T19:45:21.222Z,47.03
2019-01-24T19:47:50.190Z,49.58
2019-01-24T19:50:21.901Z,59.18
2019-01-24T19:52:50.919Z,54.83
2019-01-24T19:55:20.061Z,54.42
2019-01-24T19:57:49.242Z,53.70
2019-01-24T20:00:20.668Z,50.17
2019-01-24T20:02:49.895Z,54.35
2019-01-24T20:05:19.229Z,56.10
2019-01-24T20:07:48.566Z,56.23
2019-01-24T20:10:21.753Z,55.05
2019-01-24T20:12:50.844Z,52.43
2019-01-24T20:15:21.664Z,55.03
2019-01-24T20:17:50.827Z,51.55
2019-01-24T20:20:20.053Z,56.08
2019-01-24T20:22:49.282Z,51.63
2019-01-24T20:25:19.642Z,50.52
2019-01-24T20:27:48.733Z,42.38
2019-01-24T20:30:25.781Z,46.15
2019-01-24T20:32:54.913Z,41.23
2019-01-24T20:35:35.440Z,45.33
2019-01-24T20:38:04.829Z,45.80
2019-01-24T20:40:33.852Z,47.30
2019-01-24T20:43:02.751Z,47.95
2019-01-24T20:45:31.670Z,50.35
2019-01-24T20:48:00.560Z,44.13
2019-01-24T20:50:29.456Z,39.42
2019-01-24T20:52:58.305Z,44.03
2019-01-24T20:55:30.355Z,45.43
2019-01-24T20:57:59.351Z,46.55
2019-01-24T21:00:28.423Z,41.68
2019-01-24T21:02:57.336Z,41.33
2019-01-24T21:05:26.277Z,44.27
2019-01-24T21:07:55.481Z,40.43
2019-01-24T21:10:25.499Z,42.88
2019-01-24T21:12:54.500Z,50.50
2019-01-24T21:15:23.624Z,46.08
2019-01-24T21:17:52.805Z,39.40
2019-01-24T21:20:23.217Z,43.50
2019-01-24T21:22:52.241Z,42.27
2019-01-24T21:25:22.201Z,41.73
2019-01-24T21:27:51.237Z,44.18
2019-01-24T21:30:31.468Z,44.90
2019-01-24T21:33:00.441Z,40.30
2019-01-24T21:35:29.434Z,43.08
2019-01-24T21:37:58.452Z,43.13
2019-01-24T21:40:27.823Z,43.05
2019-01-24T21:42:56.963Z,39.00
2019-01-24T21:45:30.833Z,43.70
2019-01-24T21:47:59.982Z,37.42
2019-01-24T21:50:30.298Z,38.00
2019-01-24T21:52:59.248Z,40.03
2019-01-24T21:55:28.278Z,37.85
2019-01-24T21:57:57.475Z,41.68
2019-01-24T22:00:27.183Z,36.50
2019-01-24T22:02:56.127Z,39.10
2019-01-24T22:05:25.453Z,41.25
2019-01-24T22:07:54.535Z,40.15
2019-01-24T22:10:27.285Z,38.23
2019-01-24T22:12:56.157Z,42.62
2019-01-24T22:15:26.993Z,47.20
2019-01-24T22:17:56.127Z,44.55
2019-01-24T22:20:25.183Z,37.17
2019-01-24T22:22:53.985Z,41.18
2019-01-24T22:25:25.167Z,44.85
2019-01-24T22:27:54.229Z,44.13
2019-01-24T22:30:26.837Z,39.23
2019-01-24T22:32:55.792Z,46.13
2019-01-24T22:35:24.719Z,43.23
2019-01-24T22:37:53.711Z,42.38
2019-01-24T22:40:22.708Z,39.53
2019-01-24T22:42:51.679Z,40.40
2019-01-24T22:45:22.657Z,44.05
2019-01-24T22:47:51.559Z,45.63
2019-01-24T22:50:20.841Z,38.55
2019-01-24T22:52:49.737Z,51.35
2019-01-24T22:55:18.772Z,45.95
2019-01-24T22:57:47.813Z,40.38
2019-01-24T23:00:44.909Z,46.15
2019-01-24T23:03:14.234Z,43.65
2019-01-24T23:05:43.220Z,43.42
2019-01-24T23:08:12.157Z,45.30
2019-01-24T23:10:40.979Z,45.10
2019-01-24T23:13:09.891Z,44.85
2019-01-24T23:15:39.064Z,50.78
2019-01-24T23:18:08.470Z,51.08
2019-01-24T23:20:37.932Z,48.35
2019-01-24T23:23:07.350Z,50.00
2019-01-24T23:25:36.842Z,57.35
2019-01-24T23:28:06.859Z,48.05
2019-01-24T23:30:36.171Z,44.93
2019-01-24T23:33:10.539Z,50.80
2019-01-24T23:35:39.818Z,42.90
2019-01-24T23:38:08.892Z,44.73
2019-01-24T23:40:38.056Z,48.38
2019-01-24T23:43:13.494Z,45.60
2019-01-24T23:45:42.850Z,48.23
2019-01-24T23:48:18.192Z,49.13
2019-01-24T23:50:47.634Z,58.75
2019-01-24T23:53:17.092Z,51.05
2019-01-24T23:55:46.584Z,56.10
2019-01-24T23:58:15.798Z,51.08
